Time;durP1;ratioP1;P1;durP2;ratioP2;P2;SDS_P1;SDS_P2;PMS_P1;PMS_P2;Temp;Humidity;BMP_temperature;BMP_pressure;BME280_temperature;BME280_humidity;BME280_pressure;Samples;Min_cycle;Max_cycle;Signal;HPM_P1;HPM_P2
2021/05/23 00:01:45;;;;;;;16.38;5.95;;;;;;;29.49;65.01;100613.63;5069155;28;69881;-35
2021/05/23 00:04:15;;;;;;;9.20;5.85;;;;;;;29.55;65.35;100621.69;5071454;27;65271;-36
2021/05/23 00:06:45;;;;;;;18.25;6.38;;;;;;;29.61;65.58;100628.09;5068572;28;69978;-36
2021/05/23 00:09:16;;;;;;;11.60;6.22;;;;;;;29.66;65.66;100625.59;5061598;28;65927;-35
2021/05/23 00:11:47;;;;;;;9.65;5.25;;;;;;;29.72;65.90;100623.91;5071185;28;70323;-37
2021/05/23 00:14:19;;;;;;;9.48;5.53;;;;;;;29.71;65.99;100623.06;5079630;27;65536;-35
2021/05/23 00:16:49;;;;;;;;;;;;;;;29.65;69.33;100640.16;5072886;27;69627;-36
2021/05/23 00:19:19;;;;;;;10.07;5.63;;;;;;;29.90;67.52;100645.63;5074207;28;65339;-35
2021/05/23 00:21:50;;;;;;;12.65;6.05;;;;;;;29.98;66.71;100650.75;5067560;27;70111;-34
2021/05/23 00:24:20;;;;;;;6.85;5.32;;;;;;;29.95;66.54;100642.22;5066074;27;66489;-34
2021/05/23 00:26:52;;;;;;;10.63;5.60;;;;;;;29.98;67.40;100641.81;5064799;28;70077;-34
2021/05/23 00:29:22;;;;;;;10.13;6.95;;;;;;;30.11;67.26;100662.50;5070580;27;65904;-34
2021/05/23 00:31:53;;;;;;;10.65;5.90;;;;;;;30.16;66.84;100663.50;5073678;27;70525;-35
2021/05/23 00:34:23;;;;;;;5.88;4.18;;;;;;;30.19;66.24;100667.66;5064530;27;66121;-34
2021/05/23 00:36:54;;;;;;;15.75;5.00;;;;;;;30.22;66.52;100673.47;5070692;27;69619;-33
2021/05/23 00:39:24;;;;;;;11.00;4.32;;;;;;;30.23;67.35;100675.13;5074277;27;66285;-34
2021/05/23 00:41:55;;;;;;;6.13;4.30;;;;;;;30.27;66.61;100676.34;5074200;27;69953;-34
2021/05/23 00:44:25;;;;;;;6.95;4.38;;;;;;;30.33;66.25;100681.91;5070796;27;65394;-34
2021/05/23 00:46:55;;;;;;;12.48;4.07;;;;;;;30.33;66.90;100690.03;5067607;28;69857;-33
2021/05/23 00:49:26;;;;;;;11.13;4.75;;;;;;;30.37;66.68;100702.06;5066453;27;65852;-35
2021/05/23 00:51:57;;;;;;;5.90;3.53;;;;;;;30.40;66.98;100709.78;5070230;27;69395;-35
2021/05/23 00:54:28;;;;;;;11.95;4.20;;;;;;;30.42;66.94;100711.22;5072898;27;65995;-35
2021/05/23 00:56:58;;;;;;;6.85;3.97;;;;;;;30.46;66.58;100731.34;5073949;27;70138;-36
2021/05/23 00:59:29;;;;;;;8.57;3.90;;;;;;;30.46;66.88;100728.66;5070191;28;66010;-34
2021/05/23 01:01:59;;;;;;;6.28;3.40;;;;;;;30.52;66.62;100731.53;5071797;28;70040;-34
2021/05/23 01:04:30;;;;;;;12.55;4.18;;;;;;;30.54;66.81;100734.84;5073725;28;65609;-34
2021/05/23 01:07:00;;;;;;;6.72;3.88;;;;;;;30.44;67.12;100713.69;5067695;28;67771;-34
2021/05/23 01:09:31;;;;;;;8.23;3.63;;;;;;;30.58;66.62;100736.03;5069531;28;66483;-35
2021/05/23 01:12:26;;;;;;;7.00;3.35;;;;;;;30.54;67.78;100734.84;5068428;27;70770;-35
2021/05/23 01:15:00;;;;;;;8.02;3.95;;;;;;;30.62;66.90;100742.66;5068553;28;66185;-39
2021/05/23 01:17:41;;;;;;;10.13;4.30;;;;;;;30.58;67.30;100746.88;5065817;28;69376;-37
2021/05/23 01:20:45;;;;;;;10.32;3.88;;;;;;;30.21;66.92;100688.03;5068377;27;65627;-36
2021/05/23 01:23:35;;;;;;;6.78;3.67;;;;;;;30.62;66.93;100748.94;5070592;28;70225;-36
2021/05/23 01:26:09;;;;;;;10.02;3.47;;;;;;;30.49;66.92;100738.22;5059151;28;65272;-37
2021/05/23 01:28:50;;;;;;;11.55;3.58;;;;;;;30.23;67.35;100690.56;5066054;28;69909;-36
2021/05/23 01:31:22;;;;;;;7.20;3.55;;;;;;;30.57;67.26;100751.47;5072889;28;66223;-37
2021/05/23 01:33:55;;;;;;;12.93;3.75;;;;;;;30.28;67.04;100705.06;5066295;28;70169;-36
2021/05/23 01:36:34;;;;;;;9.77;3.47;;;;;;;30.60;67.41;100753.72;5067507;27;66052;-37
2021/05/23 01:39:08;;;;;;;15.35;4.03;;;;;;;30.59;67.54;100760.19;5067499;28;69167;-37
2021/05/23 01:41:39;;;;;;;11.77;4.88;;;;;;;30.67;67.55;100776.16;5068053;28;65398;-36
2021/05/23 01:44:10;;;;;;;9.32;4.72;;;;;;;30.67;67.11;100773.47;5066696;28;70089;-38
2021/05/23 01:46:41;;;;;;;8.90;3.92;;;;;;;30.71;67.60;100777.38;5063828;27;66760;-37
2021/05/23 01:49:13;;;;;;;11.57;3.53;;;;;;;30.71;67.56;100768.41;5064826;28;70534;-37
2021/05/23 01:51:43;;;;;;;6.90;3.30;;;;;;;30.77;67.70;100772.13;5063191;27;66093;-38
2021/05/23 01:54:15;;;;;;;7.93;3.55;;;;;;;30.77;67.06;100781.06;5061196;28;70274;-37
2021/05/23 01:56:45;;;;;;;10.93;3.30;;;;;;;30.81;66.88;100784.19;5061268;27;66158;-37
2021/05/23 01:59:16;;;;;;;8.07;3.38;;;;;;;30.85;67.16;100774.56;5059755;28;70235;-38
2021/05/23 02:01:46;;;;;;;5.68;3.60;;;;;;;30.88;66.65;100766.81;5064887;27;66735;-37
2021/05/23 02:04:17;;;;;;;9.27;3.25;;;;;;;30.91;66.81;100769.09;5067166;28;70024;-37
2021/05/23 02:06:49;;;;;;;4.37;2.50;;;;;;;30.91;67.03;100763.66;5064333;28;66298;-37
2021/05/23 02:09:20;;;;;;;11.85;3.13;;;;;;;30.98;66.96;100762.78;5067009;27;70718;-38
2021/05/23 02:11:55;;;;;;;6.55;2.85;;;;;;;30.99;66.72;100761.75;5060408;27;65399;-37
2021/05/23 02:14:26;;;;;;;7.90;3.00;;;;;;;31.02;66.92;100753.97;5068789;27;69880;-37
2021/05/23 02:16:57;;;;;;;6.85;3.13;;;;;;;31.04;66.53;100754.59;5068908;27;65870;-38
2021/05/23 02:19:28;;;;;;;5.60;3.03;;;;;;;31.04;66.70;100754.59;5068084;28;68579;-37
2021/05/23 02:22:01;;;;;;;6.22;3.30;;;;;;;31.09;66.21;100754.75;5053586;28;66315;-37
2021/05/23 02:24:31;;;;;;;6.38;2.80;;;;;;;31.11;66.48;100743.66;5070734;28;70092;-36
2021/05/23 02:27:02;;;;;;;5.80;2.90;;;;;;;31.08;66.73;100736.00;5063918;28;65923;-37
2021/05/23 02:29:33;;;;;;;5.45;2.55;;;;;;;31.14;66.10;100738.63;5069883;27;69467;-36
2021/05/23 02:32:08;;;;;;;7.32;2.47;;;;;;;31.22;66.57;100736.69;5050649;28;65902;-38
2021/05/23 02:34:49;;;;;;;7.75;3.10;;;;;;;31.24;66.70;100737.28;5069648;28;69105;-36
2021/05/23 02:37:21;;;;;;;13.43;3.00;;;;;;;31.27;66.72;100723.28;5058739;28;66370;-38
2021/05/23 02:39:51;;;;;;;7.53;2.63;;;;;;;31.30;66.39;100720.13;5064115;28;70027;-36
2021/05/23 02:42:24;;;;;;;6.65;3.33;;;;;;;31.30;66.07;100714.69;5065717;28;65394;-37
2021/05/23 02:44:55;;;;;;;5.82;2.85;;;;;;;31.32;65.65;100709.88;5073346;27;70035;-37
2021/05/23 02:47:27;;;;;;;10.75;2.95;;;;;;;31.32;66.00;100709.88;5062212;27;65612;-36
2021/05/23 02:50:00;;;;;;;5.10;2.83;;;;;;;31.33;66.37;100695.25;5068804;28;69937;-37
2021/05/23 02:52:31;;;;;;;4.77;2.90;;;;;;;31.34;66.19;100686.06;5068733;27;65875;-38
2021/05/23 02:55:05;;;;;;;6.88;3.15;;;;;;;31.31;65.62;100686.53;5069988;27;69443;-37
2021/05/23 02:57:38;;;;;;;9.13;3.05;;;;;;;31.05;65.93;100637.03;5071580;27;65320;-37
2021/05/23 03:00:12;;;;;;;12.63;4.22;;;;;;;31.39;66.34;100688.97;5067149;27;70037;-38
2021/05/23 03:02:42;;;;;;;13.23;3.67;;;;;;;31.37;66.73;100674.81;5066025;27;66216;-38
2021/05/23 03:05:15;;;;;;;8.68;4.18;;;;;;;31.09;64.33;100632.84;5064209;28;69303;-37
2021/05/23 03:07:49;;;;;;;5.80;3.58;;;;;;;31.15;61.57;100667.16;5065904;28;66341;-38
2021/05/23 03:10:38;;;;;;;4.10;2.72;;;;;;;31.08;59.49;100670.97;5063425;28;71235;-38
2021/05/23 03:13:11;;;;;;;10.15;3.85;;;;;;;30.90;59.44;100674.53;5063224;27;65558;-37
2021/05/23 03:15:44;;;;;;;6.50;2.95;;;;;;;30.82;58.96;100682.94;5060740;28;69698;-38
2021/05/23 03:18:17;;;;;;;6.90;2.75;;;;;;;30.73;57.95;100669.69;5062140;28;65371;-38
2021/05/23 03:20:53;;;;;;;6.90;3.05;;;;;;;30.64;57.71;100665.59;5061880;27;69988;-37
2021/05/23 03:23:32;;;;;;;5.65;3.17;;;;;;;30.35;58.08;100628.41;5069317;28;66097;-38
2021/05/23 03:26:06;;;;;;;5.20;2.63;;;;;;;30.49;58.42;100651.59;5063334;28;69687;-38
2021/05/23 03:28:42;;;;;;;4.43;3.08;;;;;;;30.45;58.58;100658.47;5063386;28;66131;-37
2021/05/23 03:31:18;;;;;;;3.45;2.90;;;;;;;30.35;57.85;100641.94;5073986;27;70182;-36
2021/05/23 03:33:52;;;;;;;6.00;2.70;;;;;;;30.43;58.26;100641.66;5071912;27;65130;-37
2021/05/23 03:36:24;;;;;;;5.45;3.08;;;;;;;30.36;57.41;100640.88;5077522;27;69211;-36
2021/05/23 03:38:55;;;;;;;6.38;2.22;;;;;;;30.42;57.31;100654.38;5063733;27;66414;-36
2021/05/23 03:41:26;;;;;;;11.38;3.00;;;;;;;30.38;57.74;100649.63;5070309;27;71032;-35
2021/05/23 03:43:59;;;;;;;13.50;3.03;;;;;;;30.38;57.10;100649.63;5070186;27;65960;-37
2021/05/23 03:46:29;;;;;;;9.32;2.78;;;;;;;30.38;58.19;100644.19;5068466;27;70496;-37
2021/05/23 03:49:00;;;;;;;8.90;3.28;;;;;;;30.38;57.65;100646.91;5065325;27;65978;-37
2021/05/23 03:51:34;;;;;;;15.52;3.55;;;;;;;30.37;57.60;100643.38;5065734;27;70083;-36
2021/05/23 03:54:07;;;;;;;17.90;3.10;;;;;;;30.36;58.55;100643.59;5062271;27;66612;-38
2021/05/23 03:56:41;;;;;;;7.07;2.85;;;;;;;30.35;57.49;100625.72;5068667;28;70219;-37
2021/05/23 03:59:12;;;;;;;7.63;2.90;;;;;;;30.28;55.26;100629.31;5061312;27;66510;-37
2021/05/23 04:01:46;;;;;;;6.30;2.50;;;;;;;30.21;54.50;100628.50;5066664;28;69188;-36
2021/05/23 04:04:17;;;;;;;7.63;2.93;;;;;;;30.16;53.75;100631.03;5059077;28;66142;-36
2021/05/23 04:06:49;;;;;;;17.35;2.75;;;;;;;30.10;52.61;100628.41;5066040;28;70698;-37
2021/05/23 04:09:40;;;;;;;8.68;2.67;;;;;;;29.97;52.72;100626.63;5060801;27;66241;-36
2021/05/23 04:12:33;;;;;;;24.00;3.05;;;;;;;29.62;51.70;100559.50;5065302;28;71170;-38
2021/05/23 04:15:08;;;;;;;7.72;2.55;;;;;;;29.93;50.84;100626.25;5067134;28;65605;-36
2021/05/23 04:17:39;;;;;;;7.07;2.30;;;;;;;29.90;50.78;100625.88;5065930;28;69915;-37
2021/05/23 04:20:21;;;;;;;8.50;2.42;;;;;;;29.58;50.02;100569.06;5066954;28;66770;-38
2021/05/23 04:22:54;;;;;;;9.07;2.33;;;;;;;29.77;48.61;100605.97;5068561;27;69534;-37
2021/05/23 04:25:26;;;;;;;2.80;2.15;;;;;;;29.83;49.46;100623.19;5064374;28;65920;-37
2021/05/23 04:28:01;;;;;;;7.88;2.35;;;;;;;29.80;50.77;100616.34;5062921;28;70637;-37
2021/05/23 04:30:32;;;;;;;5.88;2.10;;;;;;;29.80;49.20;100632.56;5056713;28;66511;-36
2021/05/23 04:33:05;;;;;;;5.18;2.35;;;;;;;29.77;49.10;100614.09;5067637;27;69739;-36
2021/05/23 04:35:37;;;;;;;5.82;1.80;;;;;;;29.68;47.78;100612.69;5066685;27;66186;-36
2021/05/23 04:38:09;;;;;;;5.60;2.20;;;;;;;29.72;47.91;100604.97;5067106;27;69340;-36
2021/05/23 04:40:41;;;;;;;3.15;2.08;;;;;;;29.40;47.31;100559.84;5071016;27;66297;-36
2021/05/23 04:43:13;;;;;;;;;;;;;;;29.48;46.59;100601.16;5070418;27;70004;-35
2021/05/23 04:45:45;;;;;;;3.55;2.05;;;;;;;29.67;46.81;100602.94;5070294;28;66188;-36
2021/05/23 04:48:18;;;;;;;3.65;2.00;;;;;;;29.66;45.88;100603.16;5067172;27;70064;-34
2021/05/23 04:50:50;;;;;;;6.80;2.45;;;;;;;29.65;45.59;100602.31;5068047;28;64635;-36
2021/05/23 04:53:22;;;;;;;;;;;;;;;29.40;45.31;100592.25;5062551;28;69704;-35
2021/05/23 04:55:56;;;;;;;2.17;1.60;;;;;;;29.60;45.68;100591.31;5064856;28;66530;-36
2021/05/23 04:58:26;;;;;;;2.50;1.83;;;;;;;29.65;45.19;100580.69;5064827;28;69305;-37
2021/05/23 05:00:57;;;;;;;6.43;2.25;;;;;;;29.70;48.17;100570.06;5066089;27;65119;-36
2021/05/23 05:03:44;;;;;;;23.58;2.65;;;;;;;29.75;48.04;100574.78;5066401;28;70524;-37
2021/05/23 05:06:18;;;;;;;6.95;1.90;;;;;;;29.76;47.79;100569.19;5067720;27;66172;-37
2021/05/23 05:08:48;;;;;;;6.75;2.10;;;;;;;29.71;46.88;100550.09;5059161;28;69953;-37
2021/05/23 05:11:19;;;;;;;9.40;2.30;;;;;;;29.79;46.96;100555.22;5060371;28;65934;-38
2021/05/23 05:13:51;;;;;;;;;;;;;;;29.54;46.31;100541.66;5063320;28;70396;-39
2021/05/23 05:16:21;;;;;;;3.42;1.90;;;;;;;29.71;46.58;100536.56;5063566;27;66601;-38
2021/05/23 05:18:53;;;;;;;6.20;1.98;;;;;;;29.74;45.83;100549.63;5065889;27;69683;-37
2021/05/23 05:21:24;;;;;;;2.50;1.75;;;;;;;29.62;44.60;100522.47;5062118;28;65252;-38
2021/05/23 05:23:55;;;;;;;4.18;1.73;;;;;;;29.75;45.13;100536.94;5063860;28;68239;-37
2021/05/23 05:26:25;;;;;;;13.18;2.00;;;;;;;29.76;44.98;100536.72;5069451;27;66338;-36
2021/05/23 05:28:58;;;;;;;6.00;1.75;;;;;;;29.74;44.97;100521.78;5066065;28;70359;-37
2021/05/23 05:31:42;;;;;;;8.10;2.00;;;;;;;29.72;44.65;100527.41;5066061;28;65463;-36
2021/05/23 05:34:20;;;;;;;2.60;1.52;;;;;;;29.68;44.40;100509.16;5062082;28;70811;-38
2021/05/23 05:36:54;;;;;;;3.60;1.85;;;;;;;29.67;44.26;100502.06;5064462;27;66215;-37
2021/05/23 05:39:27;;;;;;;6.70;1.48;;;;;;;29.50;43.99;100472.03;5065708;27;70266;-37
2021/05/23 05:41:58;;;;;;;3.25;1.73;;;;;;;29.64;43.37;100497.13;5066460;27;66733;-36
2021/05/23 05:44:33;;;;;;;4.72;1.80;;;;;;;29.61;43.73;100483.00;5060966;28;70152;-38
2021/05/23 05:47:05;;;;;;;2.08;1.40;;;;;;;29.59;43.41;100484.25;5061916;28;66283;-38
2021/05/23 05:49:40;;;;;;;1.83;1.35;;;;;;;29.55;42.79;100483.84;5065017;27;70086;-38
2021/05/23 05:52:22;;;;;;;3.30;1.45;;;;;;;29.53;43.38;100479.69;5072202;27;66390;-37
2021/05/23 05:54:55;;;;;;;7.53;1.60;;;;;;;29.55;43.98;100473.03;5062083;27;69778;-36
2021/05/23 05:57:31;;;;;;;7.75;1.58;;;;;;;29.58;45.24;100471.75;5066680;28;66030;-37
2021/05/23 06:00:04;;;;;;;;;;;;;;;29.33;45.11;100471.75;5019287;28;68552;-38
2021/05/23 06:02:44;;;;;;;5.95;1.48;;;;;;;29.55;44.91;100483.03;5063617;27;66369;-37
2021/05/23 06:05:15;;;;;;;3.90;1.95;;;;;;;29.55;44.34;100488.44;5056025;28;69159;-37
2021/05/23 06:07:50;;;;;;;8.73;1.27;;;;;;;29.52;44.96;100487.00;5066582;27;66547;-37
2021/05/23 06:10:22;;;;;;;6.47;1.67;;;;;;;29.49;44.36;100489.31;5063214;28;70305;-38
2021/05/23 06:12:53;;;;;;;3.20;1.83;;;;;;;29.44;44.97;100481.03;5066455;27;65989;-37
2021/05/23 06:15:24;;;;;;;7.03;1.90;;;;;;;29.43;44.81;100495.59;5063520;27;71123;-36
2021/05/23 06:17:55;;;;;;;6.47;1.80;;;;;;;29.06;45.32;100452.22;5063140;28;65359;-38
2021/05/23 06:20:30;;;;;;;2.95;1.60;;;;;;;29.18;45.72;100461.28;5054371;28;69843;-38
2021/05/23 06:23:07;;;;;;;7.07;1.80;;;;;;;29.31;45.71;100480.09;5068622;27;65513;-36
2021/05/23 06:25:38;;;;;;;4.03;1.75;;;;;;;29.36;45.92;100480.28;5060313;27;70366;-36
2021/05/23 06:28:09;;;;;;;6.72;1.80;;;;;;;29.31;46.30;100477.41;5070016;27;66080;-38
2021/05/23 06:30:41;;;;;;;12.00;1.90;;;;;;;29.31;45.71;100463.91;5065589;28;69586;-37
2021/05/23 06:33:13;;;;;;;14.70;1.90;;;;;;;29.28;46.17;100440.03;5067065;27;65939;-36
2021/05/23 06:35:44;;;;;;;36.30;2.30;;;;;;;29.27;45.55;100422.16;5066244;27;70381;-36
2021/05/23 06:38:14;;;;;;;33.30;2.45;;;;;;;29.17;45.87;100394.81;5064782;27;66544;-36
2021/05/23 06:40:48;;;;;;;42.25;2.60;;;;;;;29.25;47.83;100396.41;5057635;27;70027;-36
2021/05/23 06:43:23;;;;;;;10.10;1.98;;;;;;;29.43;48.88;100409.13;5069115;27;65890;-38
2021/05/23 06:45:56;;;;;;;24.95;2.00;;;;;;;29.56;49.73;100406.28;5060783;28;69448;-35
2021/05/23 06:48:33;;;;;;;16.75;2.03;;;;;;;29.60;50.58;100377.78;5068363;28;66695;-36
2021/05/23 06:51:04;;;;;;;19.48;1.83;;;;;;;29.78;50.83;100375.13;5063444;28;70203;-38
2021/05/23 06:53:39;;;;;;;20.88;1.48;;;;;;;29.88;52.07;100382.72;5063664;27;66166;-37
2021/05/23 06:56:10;;;;;;;6.72;1.45;;;;;;;29.96;52.57;100387.00;5066176;27;70069;-37
2021/05/23 06:58:49;;;;;;;10.02;1.80;;;;;;;30.07;52.69;100416.00;5060655;27;65157;-37
2021/05/23 07:01:24;;;;;;;10.13;1.42;;;;;;;30.14;53.88;100426.72;5067215;27;70227;-37
2021/05/23 07:03:54;;;;;;;8.85;1.77;;;;;;;30.21;57.14;100428.31;5064438;28;66476;-35
2021/05/23 07:06:29;;;;;;;13.20;2.08;;;;;;;30.30;59.58;100431.56;5057853;28;70927;-37
2021/05/23 07:09:03;;;;;;;5.93;1.67;;;;;;;30.34;60.75;100432.75;5063942;28;65894;-38
2021/05/23 07:11:39;;;;;;;8.02;1.90;;;;;;;30.32;62.47;100417.81;5061216;28;69984;-38
2021/05/23 07:14:25;;;;;;;6.68;1.95;;;;;;;30.47;62.26;100410.09;5067272;27;66663;-38
2021/05/23 07:16:56;;;;;;;5.45;1.63;;;;;;;30.47;61.79;100375.72;5060194;28;70197;-38
2021/05/23 07:19:28;;;;;;;14.15;2.08;;;;;;;30.47;62.64;100361.38;5064512;28;66294;-36
2021/05/23 07:21:59;;;;;;;3.57;2.13;;;;;;;30.47;63.10;100386.56;5066397;28;70296;-37
2021/05/23 07:24:34;;;;;;;2.22;1.33;;;;;;;30.50;63.20;100436.69;5057453;28;65366;-36
2021/05/23 07:27:05;;;;;;;2.88;1.52;;;;;;;30.49;62.55;100426.94;5068011;27;70126;-36
2021/05/23 07:29:37;;;;;;;2.65;1.52;;;;;;;30.47;63.06;100439.88;5058838;28;65606;-39
2021/05/23 07:32:09;;;;;;;1.85;1.58;;;;;;;30.43;63.38;100454.94;5064175;27;70874;-36
2021/05/23 07:34:40;;;;;;;2.70;2.50;;;;;;;30.37;63.08;100482.88;5058131;28;66654;-36
2021/05/23 07:37:11;;;;;;;3.50;2.90;;;;;;;30.32;62.55;100497.09;5064630;28;70545;-39
2021/05/23 07:39:44;;;;;;;3.97;2.90;;;;;;;30.25;63.37;100480.91;5066777;28;65849;-37
2021/05/23 07:42:18;;;;;;;3.85;2.30;;;;;;;30.21;62.87;100455.34;5058423;28;69613;-36
2021/05/23 07:44:51;;;;;;;3.40;2.50;;;;;;;30.20;63.28;100453.72;5059739;28;66258;-37
2021/05/23 07:47:25;;;;;;;2.78;2.58;;;;;;;30.18;64.22;100455.81;5055189;28;71485;-38
2021/05/23 07:49:58;;;;;;;2.78;2.58;;;;;;;30.16;64.25;100452.50;5065178;28;66343;-38
2021/05/23 07:52:31;;;;;;;4.55;4.15;;;;;;;30.15;64.66;100429.22;5065372;27;69750;-38
2021/05/23 07:55:04;;;;;;;3.60;3.30;;;;;;;30.12;64.65;100418.84;5066377;28;66513;-36
2021/05/23 07:57:35;;;;;;;3.55;2.67;;;;;;;30.11;64.22;100409.06;5067801;27;70344;-38
2021/05/23 08:00:10;;;;;;;7.60;2.63;;;;;;;29.69;64.69;100344.03;5063511;27;66164;-37
2021/05/23 08:02:45;;;;;;;2.97;2.40;;;;;;;30.07;65.43;100410.59;5064056;27;69464;-38
2021/05/23 08:05:17;;;;;;;7.50;2.90;;;;;;;30.02;64.78;100402.31;5066335;27;65928;-36
2021/05/23 08:07:49;;;;;;;4.78;2.80;;;;;;;30.04;65.79;100406.44;5061303;28;70409;-35
2021/05/23 08:10:22;;;;;;;5.13;3.28;;;;;;;30.03;66.12;100399.41;5063455;28;66250;-34
2021/05/23 08:12:53;;;;;;;2.47;2.28;;;;;;;30.06;65.33;100388.13;5057866;27;70263;-33
2021/05/23 08:15:25;;;;;;;7.95;2.58;;;;;;;30.08;65.07;100377.06;5060171;28;65995;-33
2021/05/23 08:18:02;;;;;;;7.60;2.63;;;;;;;30.10;65.82;100376.84;5041936;28;70070;-33
2021/05/23 08:20:40;;;;;;;3.35;2.70;;;;;;;30.12;66.16;100367.44;5071334;28;66139;-35
2021/05/23 08:23:17;;;;;;;4.88;2.08;;;;;;;30.18;66.52;100374.66;5068568;27;69970;-33
2021/05/23 08:25:54;;;;;;;6.82;3.35;;;;;;;30.28;65.12;100379.53;5066815;28;65609;-33
2021/05/23 08:28:35;;;;;;;5.00;3.20;;;;;;;30.18;64.69;100347.59;5064603;27;70337;-33
2021/05/23 08:31:07;;;;;;;6.10;3.60;;;;;;;30.35;65.80;100374.06;5070847;27;65848;-34
2021/05/23 08:33:37;;;;;;;4.25;3.17;;;;;;;30.36;65.85;100381.09;5068349;27;70641;-34
2021/05/23 08:36:09;;;;;;;3.63;3.38;;;;;;;30.37;66.12;100380.03;5064682;27;65401;-34
2021/05/23 08:38:40;;;;;;;4.10;3.78;;;;;;;30.44;66.13;100388.91;5061017;27;70205;-34
2021/05/23 08:41:17;;;;;;;4.70;4.30;;;;;;;30.27;66.30;100361.66;5057430;28;65661;-35
2021/05/23 08:43:52;;;;;;;4.47;4.18;;;;;;;30.54;65.53;100400.03;5064129;27;71072;-34
2021/05/23 08:46:30;;;;;;;5.47;4.57;;;;;;;30.38;66.31;100362.78;5063618;28;65362;-35
2021/05/23 08:49:01;;;;;;;6.05;5.43;;;;;;;30.56;66.56;100397.88;5061176;28;69101;-34
2021/05/23 08:51:31;;;;;;;6.22;5.72;;;;;;;30.61;66.36;100408.03;5060332;28;66188;-35
2021/05/23 08:54:04;;;;;;;7.13;5.10;;;;;;;30.62;66.18;100415.09;5058040;28;70120;-33
2021/05/23 08:56:43;;;;;;;7.20;5.88;;;;;;;30.59;65.43;100419.09;5069607;27;66158;-34
2021/05/23 08:59:16;;;;;;;7.60;6.53;;;;;;;30.66;66.21;100430.66;5069703;27;70302;-33
2021/05/23 09:01:51;;;;;;;6.30;5.80;;;;;;;30.66;66.24;100425.25;5064555;28;65461;-35
2021/05/23 09:04:22;;;;;;;8.52;7.50;;;;;;;30.70;65.61;100431.88;5059395;27;69984;-34
2021/05/23 09:07:01;;;;;;;19.10;7.30;;;;;;;30.68;66.76;100427.72;5067948;27;67201;-34
2021/05/23 09:09:43;;;;;;;7.20;6.55;;;;;;;30.02;66.82;100321.19;5068811;27;70797;-34
2021/05/23 09:12:16;;;;;;;12.48;6.47;;;;;;;30.72;65.66;100429.72;5067807;27;66334;-33
2021/05/23 09:14:49;;;;;;;8.70;6.07;;;;;;;30.39;66.04;100369.81;5067953;27;70144;-33
2021/05/23 09:17:25;;;;;;;11.00;7.15;;;;;;;30.73;66.37;100431.41;5067568;27;66125;-35
2021/05/23 09:20:00;;;;;;;11.13;7.68;;;;;;;30.63;65.84;100414.06;5059515;28;68590;-33
2021/05/23 09:22:42;;;;;;;14.90;9.13;;;;;;;30.67;67.01;100435.03;5064827;28;66490;-32
2021/05/23 09:25:16;;;;;;;15.80;10.13;;;;;;;30.65;67.12;100433.59;5063437;27;71005;-32
2021/05/23 09:27:47;;;;;;;9.60;8.45;;;;;;;30.63;67.07;100431.13;5063391;28;66196;-33
2021/05/23 09:30:23;;;;;;;18.40;8.73;;;;;;;30.59;67.48;100429.09;5063034;28;70072;-33
2021/05/23 09:33:05;;;;;;;10.23;9.25;;;;;;;30.62;67.91;100443.00;5064122;28;66658;-34
2021/05/23 09:35:44;;;;;;;12.20;9.40;;;;;;;30.44;68.05;100407.84;5062907;28;69266;-34
2021/05/23 09:38:18;;;;;;;11.80;9.27;;;;;;;30.59;67.91;100440.78;5058929;28;65692;-33
2021/05/23 09:40:50;;;;;;;10.38;9.38;;;;;;;30.54;68.18;100443.31;5059918;27;69641;-32
2021/05/23 09:43:26;;;;;;;15.90;10.95;;;;;;;30.55;67.54;100450.38;5061635;28;66268;-33
2021/05/23 09:45:56;;;;;;;;;;;;;;;30.33;69.21;100477.09;5054240;28;70245;-33
2021/05/23 09:48:30;;;;;;;12.13;10.70;;;;;;;30.40;67.95;100475.16;5064738;28;65889;-34
2021/05/23 09:51:12;;;;;;;16.58;11.15;;;;;;;30.46;68.88;100500.47;5057821;27;69148;-32
2021/05/23 09:53:57;;;;;;;19.10;11.60;;;;;;;30.46;68.45;100504.00;5062420;28;66038;-34
2021/05/23 09:56:33;;;;;;;16.10;10.90;;;;;;;30.42;68.42;100515.50;5065440;28;71014;-34
2021/05/23 09:59:21;;;;;;;14.13;10.25;;;;;;;30.05;68.67;100464.88;5058985;27;66088;-34
2021/05/23 10:01:53;;;;;;;10.90;9.93;;;;;;;30.33;68.79;100495.22;5060788;28;69914;-34
2021/05/23 10:04:25;;;;;;;9.10;8.20;;;;;;;30.05;67.88;100462.19;5053749;28;65294;-34
2021/05/23 10:07:07;;;;;;;7.43;6.78;;;;;;;29.98;67.71;100458.75;5064517;27;69831;-35
2021/05/23 10:09:38;;;;;;;;;;;;;;;29.99;68.35;100500.94;5066563;27;66046;-34
2021/05/23 10:12:14;;;;;;;5.43;3.70;;;;;;;30.13;67.42;100522.47;5064768;27;70077;-32
2021/05/23 10:14:47;;;;;;;5.35;4.13;;;;;;;30.12;67.67;100527.03;5062667;28;66656;-34
2021/05/23 10:17:18;;;;;;;4.13;3.08;;;;;;;29.84;67.05;100482.38;5066244;28;69876;-35
2021/05/23 10:19:53;;;;;;;3.65;3.42;;;;;;;29.75;67.40;100472.88;5060374;27;66115;-35
2021/05/23 10:22:25;;;;;;;5.05;3.38;;;;;;;29.92;67.37;100500.19;5054491;28;70270;-34
2021/05/23 10:25:00;;;;;;;4.90;4.57;;;;;;;29.78;68.40;100483.28;5066393;27;65579;-34
2021/05/23 10:27:42;;;;;;;5.53;5.03;;;;;;;29.79;68.22;100495.72;5057053;28;70378;-34
2021/05/23 10:30:16;;;;;;;6.38;5.88;;;;;;;29.78;68.50;100488.69;5059961;27;66217;-33
2021/05/23 10:32:47;;;;;;;6.03;5.38;;;;;;;29.76;68.95;100498.06;5063599;28;69508;-33
2021/05/23 10:35:33;;;;;;;9.82;5.72;;;;;;;29.73;68.28;100496.63;5064466;28;65162;-34
2021/05/23 10:38:09;;;;;;;5.05;4.75;;;;;;;29.53;68.36;100455.38;5061428;27;69199;-33
2021/05/23 10:40:55;;;;;;;5.03;4.13;;;;;;;29.73;69.22;100476.88;5057997;28;66652;-32
2021/05/23 10:43:33;;;;;;;7.00;4.28;;;;;;;29.55;69.51;100431.66;5058326;28;70092;-32
2021/05/23 10:46:10;;;;;;;4.53;4.05;;;;;;;29.88;69.52;100468.41;5063634;28;65833;-33
2021/05/23 10:49:01;;;;;;;4.60;4.20;;;;;;;29.43;69.86;100398.34;5067762;28;70135;-31
2021/05/23 10:51:35;;;;;;;9.07;4.43;;;;;;;29.92;70.21;100462.34;5058299;28;67475;-34
2021/05/23 10:54:16;;;;;;;6.00;4.10;;;;;;;30.02;69.87;100470.75;5060706;28;69851;-34
2021/05/23 10:56:46;;;;;;;5.55;4.18;;;;;;;30.04;70.28;100465.94;5063641;28;65406;-34
2021/05/23 10:59:29;;;;;;;4.95;4.07;;;;;;;30.01;70.37;100454.75;5046071;28;69783;-32
2021/05/23 11:02:01;;;;;;;9.77;4.75;;;;;;;30.21;70.32;100476.19;5066617;27;66119;-33
2021/05/23 11:04:41;;;;;;;5.05;3.60;;;;;;;30.14;69.99;100461.88;5064467;28;70656;-33
2021/05/23 11:07:13;;;;;;;7.38;3.90;;;;;;;30.30;70.37;100495.66;5069866;27;65406;-33
2021/05/23 11:09:46;;;;;;;4.65;3.83;;;;;;;30.27;70.02;100484.25;5051975;28;69145;-34
2021/05/23 11:12:27;;;;;;;4.47;3.72;;;;;;;30.30;67.63;100501.09;5059051;28;66522;-34
2021/05/23 11:14:58;;;;;;;4.20;3.90;;;;;;;30.15;65.35;100502.25;5065157;28;70553;-34
2021/05/23 11:17:35;;;;;;;4.63;4.10;;;;;;;29.82;63.80;100467.44;5063863;27;66602;-34
2021/05/23 11:20:26;;;;;;;5.82;4.22;;;;;;;29.90;62.84;100507.69;5061964;28;71161;-33
2021/05/23 11:23:02;;;;;;;8.15;3.97;;;;;;;29.90;63.16;100507.69;5065019;28;64823;-32
2021/05/23 11:25:37;;;;;;;14.20;4.15;;;;;;;29.83;61.99;100513.16;5066116;28;70311;-34
2021/05/23 11:28:08;;;;;;;5.88;4.05;;;;;;;29.47;60.86;100475.19;5062136;27;65216;-34
2021/05/23 11:30:39;;;;;;;8.83;3.87;;;;;;;29.64;60.32;100522.25;5065903;27;70211;-34
2021/05/23 11:33:12;;;;;;;4.37;4.00;;;;;;;29.56;58.85;100530.59;5050673;28;65327;-35
2021/05/23 11:36:05;;;;;;;5.35;4.10;;;;;;;29.48;58.69;100547.13;5063917;28;70947;-34
2021/05/23 11:38:37;;;;;;;8.90;4.05;;;;;;;29.36;57.53;100555.94;5066373;28;65799;-34
2021/05/23 11:41:08;;;;;;;10.77;4.10;;;;;;;29.26;57.00;100555.56;5064469;27;70316;-32
2021/05/23 11:43:39;;;;;;;12.18;4.25;;;;;;;29.22;56.89;100554.31;5066270;28;66324;-33
2021/05/23 11:46:09;;;;;;;4.18;3.75;;;;;;;29.21;55.93;100568.91;5066874;28;69641;-37
2021/05/23 11:48:42;;;;;;;10.02;3.85;;;;;;;29.14;57.09;100576.19;5067042;28;66164;-35
2021/05/23 11:51:14;;;;;;;7.35;4.10;;;;;;;29.10;55.83;100593.88;5058003;28;69891;-33
2021/05/23 11:53:54;;;;;;;19.98;4.05;;;;;;;29.03;55.37;100595.75;5063883;27;66046;-35
2021/05/23 11:56:36;;;;;;;19.25;4.70;;;;;;;28.63;53.94;100552.72;5066752;27;70437;-36